Terminal Aerodrome Forecast
Issued by NWS

Home | Current Version | Previous Version | Graphics & Text | Print | Product List | Glossary On
Versions: 1 2 3 4 5 6 7 8 9 10 11 12 13 14 15 16 17
000
FTUS43 KEAX 300500
TAFSTJ
TAF
KSTJ 300520Z 3006/3106 30010KT P6SM -SHRA VCTS BKN025CB
     FM300800 33012KT P6SM OVC008
     FM301800 34015G24KT P6SM OVC025=

USA.gov is the U.S. government's official web portal to all federal, state and local government web resources and services.